createdAt,value
2023-05-04T00:01:11.640Z,9.53
2023-05-04T00:03:38.937Z,7.73
2023-05-04T00:06:05.898Z,9.87
2023-05-04T00:08:32.753Z,8.13
2023-05-04T00:10:59.586Z,12.63
2023-05-04T00:13:26.828Z,8.07
2023-05-04T00:15:53.694Z,9.50
2023-05-04T00:18:20.633Z,7.73
2023-05-04T00:20:47.470Z,8.97
2023-05-04T00:23:14.378Z,9.43
2023-05-04T00:25:41.196Z,7.80
2023-05-04T00:28:07.992Z,7.80
2023-05-04T00:30:34.875Z,7.10
2023-05-04T00:33:02.013Z,9.90
2023-05-04T00:35:31.549Z,9.07
2023-05-04T00:37:58.299Z,16.33
2023-05-04T00:40:25.162Z,8.33
2023-05-04T00:42:51.989Z,11.63
2023-05-04T00:45:19.145Z,14.80
2023-05-04T00:47:46.098Z,10.83
2023-05-04T00:50:13.009Z,14.70
2023-05-04T00:52:42.122Z,10.43
2023-05-04T00:55:10.837Z,16.50
2023-05-04T00:57:38.501Z,13.43
2023-05-04T01:00:06.408Z,12.20
2023-05-04T01:02:33.366Z,16.57
2023-05-04T01:05:00.965Z,15.90
2023-05-04T01:07:47.839Z,13.73
2023-05-04T01:10:22.728Z,13.33
2023-05-04T01:12:56.360Z,15.00
2023-05-04T01:15:23.505Z,15.37
2023-05-04T01:17:50.320Z,14.17
2023-05-04T01:20:17.112Z,13.33
2023-05-04T01:22:44.486Z,17.73
2023-05-04T01:25:11.593Z,14.57
2023-05-04T01:27:55.953Z,13.97
2023-05-04T01:30:33.148Z,16.40
2023-05-04T01:33:01.225Z,16.20
2023-05-04T01:35:28.413Z,17.53
2023-05-04T01:37:56.012Z,16.67
2023-05-04T01:40:22.960Z,16.33
2023-05-04T01:42:49.714Z,18.33
2023-05-04T01:45:16.613Z,12.63
2023-05-04T01:47:43.525Z,14.17
2023-05-04T01:50:10.669Z,15.00
2023-05-04T01:52:37.533Z,13.20
2023-05-04T01:55:04.566Z,13.57
2023-05-04T01:57:31.382Z,15.50
2023-05-04T01:59:58.249Z,14.00
2023-05-04T02:02:25.816Z,13.37
2023-05-04T02:04:52.629Z,13.10
2023-05-04T02:07:19.520Z,14.63
2023-05-04T02:09:46.352Z,18.47
2023-05-04T02:12:13.307Z,16.73
2023-05-04T02:14:40.170Z,14.43
2023-05-04T02:17:07.491Z,15.80
2023-05-04T02:19:34.460Z,16.37
2023-05-04T02:22:01.222Z,17.10
2023-05-04T02:24:27.987Z,13.57
2023-05-04T02:26:54.865Z,16.10
2023-05-04T02:29:21.783Z,16.40
2023-05-04T02:31:48.699Z,16.10
2023-05-04T02:34:15.482Z,16.73
2023-05-04T02:36:42.577Z,14.43
2023-05-04T02:39:09.427Z,14.17
2023-05-04T02:41:36.281Z,15.53
2023-05-04T02:44:03.146Z,16.47
2023-05-04T02:46:31.200Z,16.83
2023-05-04T02:48:58.043Z,15.10
2023-05-04T02:51:24.790Z,19.93
2023-05-04T02:53:51.616Z,15.87
2023-05-04T02:56:18.545Z,14.03
2023-05-04T02:58:45.903Z,14.43
2023-05-04T04:01:48.529Z,17.40
2023-05-04T04:04:15.274Z,18.80
2023-05-04T04:06:43.436Z,21.53
2023-05-04T04:09:10.616Z,19.77
2023-05-04T04:11:37.426Z,19.73
2023-05-04T04:14:04.335Z,16.10
2023-05-04T04:16:31.361Z,22.07
2023-05-04T04:18:58.307Z,23.97
2023-05-04T04:21:25.137Z,20.73
2023-05-04T04:23:51.955Z,17.43
2023-05-04T04:26:18.759Z,17.00
2023-05-04T04:28:50.540Z,17.50
2023-05-04T04:31:18.701Z,25.33
2023-05-04T04:33:47.354Z,16.47
2023-05-04T04:36:16.935Z,19.83
2023-05-04T04:38:44.560Z,17.80
2023-05-04T04:41:11.681Z,18.47
2023-05-04T04:43:38.837Z,18.20
2023-05-04T04:46:05.800Z,16.40
2023-05-04T04:48:32.616Z,19.40
2023-05-04T04:50:59.553Z,16.33
2023-05-04T04:53:26.366Z,18.00
2023-05-04T04:55:54.171Z,19.40
2023-05-04T04:58:20.998Z,17.07
2023-05-04T05:00:47.877Z,15.03
2023-05-04T05:03:14.824Z,15.03
2023-05-04T05:05:41.952Z,16.10
2023-05-04T05:08:08.718Z,19.07
2023-05-04T05:10:36.080Z,15.83
2023-05-04T05:13:03.048Z,14.20
2023-05-04T05:15:29.916Z,16.90
2023-05-04T05:17:57.014Z,14.90
2023-05-04T05:20:24.143Z,17.00
2023-05-04T05:22:52.232Z,14.70
2023-05-04T05:25:19.724Z,12.80
2023-05-04T05:27:46.780Z,14.30
2023-05-04T05:30:13.800Z,17.63
2023-05-04T05:32:40.760Z,15.30
2023-05-04T05:35:09.432Z,13.23
2023-05-04T05:37:36.398Z,13.30
2023-05-04T05:40:06.470Z,15.03
2023-05-04T05:42:33.956Z,14.30
2023-05-04T05:45:01.977Z,12.77
2023-05-04T05:47:29.186Z,10.90
2023-05-04T05:49:56.525Z,12.67
2023-05-04T05:52:23.466Z,12.33
2023-05-04T05:54:50.297Z,11.93
2023-05-04T05:57:17.121Z,15.20
2023-05-04T05:59:44.778Z,15.43
2023-05-04T06:02:14.706Z,12.10
2023-05-04T06:04:42.653Z,16.73
2023-05-04T06:07:09.604Z,12.57
2023-05-04T06:09:36.733Z,11.47
2023-05-04T06:12:04.995Z,12.63
2023-05-04T06:14:31.790Z,18.80
2023-05-04T06:16:58.978Z,10.20
2023-05-04T06:19:27.177Z,10.43
2023-05-04T06:21:54.555Z,14.73
2023-05-04T06:24:22.665Z,10.37
2023-05-04T06:26:49.565Z,10.33
2023-05-04T06:29:16.352Z,11.30
2023-05-04T06:31:46.089Z,11.17
2023-05-04T06:34:13.726Z,10.13
2023-05-04T06:36:40.499Z,12.73
2023-05-04T06:39:07.477Z,12.40
2023-05-04T06:41:34.288Z,12.23
2023-05-04T06:44:01.493Z,11.97
2023-05-04T06:46:28.368Z,9.53
2023-05-04T06:48:55.241Z,12.07
2023-05-04T06:51:22.266Z,11.50
2023-05-04T06:53:49.025Z,11.40
2023-05-04T06:56:16.765Z,9.87
2023-05-04T06:58:43.614Z,9.47
2023-05-04T07:01:11.330Z,8.40
2023-05-04T07:03:38.843Z,9.50
2023-05-04T07:06:06.012Z,10.50
2023-05-04T07:08:32.957Z,7.33
2023-05-04T07:10:59.779Z,7.70
2023-05-04T07:13:26.974Z,6.80
2023-05-04T07:15:53.822Z,9.00
2023-05-04T07:18:20.689Z,7.77
2023-05-04T07:20:47.499Z,8.40
2023-05-04T07:23:14.383Z,7.50
2023-05-04T07:25:41.321Z,8.07
2023-05-04T07:28:08.087Z,9.60
2023-05-04T07:30:34.830Z,7.07
2023-05-04T07:33:01.784Z,7.47
2023-05-04T07:35:28.621Z,6.90
2023-05-04T07:37:55.510Z,7.07
2023-05-04T07:40:22.420Z,8.93
2023-05-04T07:42:49.283Z,7.43
2023-05-04T07:45:17.130Z,6.20
2023-05-04T07:47:44.208Z,6.60
2023-05-04T07:50:11.912Z,5.60
2023-05-04T07:52:38.725Z,6.00
2023-05-04T07:55:06.386Z,4.60
2023-05-04T07:57:35.610Z,6.73
2023-05-04T08:00:02.647Z,5.50
2023-05-04T08:02:29.661Z,4.83
2023-05-04T08:04:56.625Z,7.47
2023-05-04T08:07:23.449Z,5.00
2023-05-04T08:09:50.318Z,6.17
2023-05-04T08:12:17.168Z,4.63
2023-05-04T08:14:47.379Z,3.50
2023-05-04T08:17:14.214Z,4.30
2023-05-04T08:19:41.022Z,4.00
2023-05-04T08:22:08.941Z,4.67
2023-05-04T08:24:36.258Z,6.57
2023-05-04T08:27:07.740Z,4.13
2023-05-04T08:29:37.282Z,3.20
2023-05-04T08:32:04.934Z,3.27
2023-05-04T08:34:32.275Z,5.17
2023-05-04T08:36:59.130Z,5.27
2023-05-04T08:39:25.976Z,3.83
2023-05-04T08:41:53.393Z,3.50
2023-05-04T08:44:22.449Z,6.23
2023-05-04T08:46:53.278Z,4.93
2023-05-04T08:49:21.999Z,3.07
2023-05-04T08:51:51.005Z,3.77
2023-05-04T08:54:19.241Z,3.03
2023-05-04T08:56:47.205Z,3.60
2023-05-04T08:59:23.147Z,3.58
2023-05-04T09:01:54.470Z,3.10
2023-05-04T09:04:22.407Z,4.20
2023-05-04T09:06:49.479Z,3.45
2023-05-04T09:09:16.674Z,3.88
2023-05-04T09:11:44.392Z,2.85
2023-05-04T09:14:11.338Z,3.65
2023-05-04T09:16:38.761Z,3.75
2023-05-04T09:19:17.445Z,4.80
2023-05-04T09:21:44.624Z,5.47
2023-05-04T09:24:12.631Z,3.20
2023-05-04T09:26:39.520Z,5.93
2023-05-04T09:29:15.446Z,3.30
2023-05-04T09:31:51.315Z,4.53
2023-05-04T09:34:20.612Z,4.78
2023-05-04T09:36:59.131Z,3.38
2023-05-04T09:39:26.007Z,3.63
2023-05-04T09:41:52.911Z,5.77
2023-05-04T09:44:22.493Z,2.90
2023-05-04T09:46:54.932Z,3.58
2023-05-04T09:49:38.894Z,2.90
2023-05-04T09:52:07.016Z,6.53
2023-05-04T09:54:36.324Z,6.05
2023-05-04T09:57:12.049Z,2.85
2023-05-04T09:59:39.858Z,4.63
2023-05-04T10:02:21.177Z,3.33
2023-05-04T10:04:50.686Z,4.28
2023-05-04T10:07:18.277Z,4.15
2023-05-04T10:09:47.015Z,3.08
2023-05-04T10:12:14.546Z,3.15
2023-05-04T10:14:42.919Z,4.30
2023-05-04T10:17:35.110Z,2.90
2023-05-04T10:20:18.156Z,4.45
2023-05-04T10:23:10.620Z,4.75
2023-05-04T10:25:48.689Z,4.10
2023-05-04T10:28:34.009Z,6.28
2023-05-04T10:31:00.872Z,4.63
2023-05-04T10:33:38.816Z,6.82
2023-05-04T10:36:06.011Z,6.82
2023-05-04T10:38:33.944Z,4.05
2023-05-04T10:41:01.002Z,6.78
2023-05-04T10:43:29.248Z,5.28
2023-05-04T10:45:57.784Z,4.70
2023-05-04T10:48:35.068Z,5.00
2023-05-04T10:51:02.185Z,7.45
2023-05-04T10:53:33.260Z,4.10
2023-05-04T10:56:00.071Z,6.80
2023-05-04T10:58:29.330Z,5.63
2023-05-04T11:00:56.301Z,5.95
2023-05-04T11:03:25.010Z,6.03
2023-05-04T11:05:54.658Z,6.45
2023-05-04T11:08:24.218Z,5.70
2023-05-04T11:11:07.533Z,7.90
2023-05-04T11:13:35.196Z,7.32
2023-05-04T11:16:02.304Z,7.05
2023-05-04T11:18:34.258Z,7.10
2023-05-04T11:21:01.640Z,8.93
2023-05-04T11:23:29.058Z,7.43
2023-05-04T11:25:56.607Z,7.72
2023-05-04T11:28:39.570Z,7.78
2023-05-04T11:31:21.898Z,8.05
2023-05-04T11:33:51.462Z,5.38
2023-05-04T11:36:19.677Z,5.72
2023-05-04T11:38:47.359Z,6.18
2023-05-04T11:41:14.577Z,6.07
2023-05-04T11:43:43.914Z,9.63
2023-05-04T11:46:11.542Z,9.60
2023-05-04T11:48:39.804Z,5.70
2023-05-04T11:51:06.942Z,11.45
2023-05-04T11:53:38.590Z,5.90
2023-05-04T11:56:06.634Z,5.93
2023-05-04T11:58:33.644Z,13.60
2023-05-04T12:01:01.154Z,7.10
2023-05-04T12:03:43.934Z,10.07
2023-05-04T12:06:19.121Z,5.80
2023-05-04T12:08:46.429Z,5.88
2023-05-04T12:11:26.171Z,7.28
2023-05-04T12:14:10.237Z,10.15
2023-05-04T12:16:38.730Z,4.50
2023-05-04T12:19:08.258Z,4.85
2023-05-04T12:21:36.142Z,6.80
2023-05-04T12:24:03.891Z,9.90
2023-05-04T12:26:31.186Z,6.53
2023-05-04T12:28:58.111Z,4.50
2023-05-04T12:31:25.517Z,4.80
2023-05-04T12:33:53.097Z,6.90
2023-05-04T12:36:19.960Z,4.15
2023-05-04T12:38:46.860Z,4.47
2023-05-04T12:41:14.006Z,5.53
2023-05-04T12:43:40.947Z,4.57
2023-05-04T12:46:07.900Z,6.00
2023-05-04T12:48:34.781Z,5.38
2023-05-04T12:51:04.082Z,4.25
2023-05-04T12:53:32.233Z,4.47
2023-05-04T12:56:00.660Z,4.60
2023-05-04T12:58:27.783Z,5.40
2023-05-04T13:00:56.212Z,4.32
2023-05-04T13:03:23.482Z,5.80
2023-05-04T13:05:50.817Z,5.90
2023-05-04T13:08:18.340Z,3.75
2023-05-04T13:10:46.298Z,5.75
2023-05-04T13:13:16.060Z,4.30
2023-05-04T13:15:44.122Z,4.55
2023-05-04T13:18:11.094Z,5.32
2023-05-04T13:20:39.514Z,6.43
2023-05-04T13:23:06.577Z,5.30
2023-05-04T13:25:33.409Z,6.40
2023-05-04T13:28:00.462Z,5.25
2023-05-04T13:30:28.096Z,4.72
2023-05-04T13:32:54.964Z,4.97
2023-05-04T13:35:22.083Z,3.55
2023-05-04T13:37:48.953Z,8.48
2023-05-04T13:40:15.861Z,4.50
2023-05-04T13:42:42.807Z,4.18
2023-05-04T13:45:10.082Z,4.05
2023-05-04T13:47:37.204Z,3.30
2023-05-04T13:50:04.739Z,5.25
2023-05-04T13:52:32.409Z,3.90
2023-05-04T13:54:59.817Z,4.45
2023-05-04T13:57:28.491Z,4.40
2023-05-04T14:00:06.673Z,4.60
2023-05-04T14:02:35.115Z,6.75
2023-05-04T14:05:03.267Z,4.07
2023-05-04T14:07:30.177Z,5.78
2023-05-04T14:09:56.974Z,5.65
2023-05-04T14:12:24.073Z,4.32
2023-05-04T14:14:50.962Z,4.43
2023-05-04T14:17:18.323Z,4.60
2023-05-04T14:19:45.773Z,4.88
2023-05-04T14:22:12.777Z,5.05
2023-05-04T14:24:39.620Z,4.20
2023-05-04T14:27:06.419Z,4.67
2023-05-04T14:29:34.371Z,3.95
2023-05-04T14:32:01.344Z,4.53
2023-05-04T14:34:28.276Z,4.30
2023-05-04T14:36:55.035Z,3.77
2023-05-04T14:39:22.528Z,4.03
2023-05-04T14:41:49.520Z,5.10
2023-05-04T14:44:16.465Z,6.07
2023-05-04T14:46:43.315Z,5.37
2023-05-04T14:49:12.545Z,5.60
2023-05-04T14:51:43.182Z,4.10
2023-05-04T14:54:09.980Z,9.10
2023-05-04T14:56:36.847Z,4.83
2023-05-04T14:59:03.842Z,6.67
2023-05-04T15:01:30.742Z,5.80
2023-05-04T15:03:57.677Z,5.50
2023-05-04T15:06:24.501Z,6.00
2023-05-04T15:08:51.277Z,7.20
2023-05-04T15:11:19.386Z,6.50
2023-05-04T15:13:46.482Z,5.73
2023-05-04T15:16:17.816Z,7.43
2023-05-04T15:18:44.717Z,4.50
2023-05-04T15:21:11.572Z,4.70
2023-05-04T15:23:38.403Z,5.93
2023-05-04T15:26:05.197Z,4.70
2023-05-04T15:28:31.951Z,7.50
2023-05-04T15:31:00.347Z,5.10
2023-05-04T15:33:27.178Z,9.30
2023-05-04T15:35:53.943Z,10.40
2023-05-04T15:38:20.977Z,6.17
2023-05-04T15:40:47.799Z,5.70
2023-05-04T15:43:15.247Z,5.23
2023-05-04T15:45:42.101Z,5.97
2023-05-04T15:48:08.982Z,10.50
2023-05-04T15:50:35.880Z,4.47
2023-05-04T15:53:02.675Z,8.47
2023-05-04T15:55:29.459Z,6.27
2023-05-04T15:57:56.228Z,5.97
2023-05-04T16:00:23.578Z,7.20
2023-05-04T16:02:50.605Z,7.40
2023-05-04T16:05:17.450Z,6.13
2023-05-04T16:07:44.250Z,8.23
2023-05-04T16:10:11.204Z,5.30
2023-05-04T16:12:39.710Z,4.90
2023-05-04T16:15:07.390Z,5.50
2023-05-04T16:17:35.538Z,4.63
2023-05-04T16:20:04.010Z,6.33
2023-05-04T16:22:31.325Z,5.40
2023-05-04T16:24:58.532Z,4.80
2023-05-04T16:27:28.828Z,3.73
2023-05-04T16:29:56.186Z,5.13
2023-05-04T16:32:23.191Z,3.70
2023-05-04T16:34:51.061Z,5.13
2023-05-04T16:37:18.989Z,4.53
2023-05-04T16:39:45.982Z,5.90
2023-05-04T16:42:12.933Z,7.97
2023-05-04T16:44:39.783Z,8.67
2023-05-04T16:47:07.241Z,8.40
2023-05-04T16:49:34.385Z,9.23
2023-05-04T16:52:02.272Z,11.13
2023-05-04T16:54:29.132Z,8.20
2023-05-04T16:56:56.080Z,5.10
2023-05-04T16:59:23.689Z,8.00
2023-05-04T17:01:50.827Z,7.70
2023-05-04T17:04:17.600Z,5.40
2023-05-04T17:06:44.672Z,7.97
2023-05-04T17:09:11.915Z,6.63
2023-05-04T17:11:38.880Z,6.47
2023-05-04T17:14:05.888Z,6.40
2023-05-04T17:16:32.825Z,7.80
2023-05-04T17:18:59.775Z,7.50
2023-05-04T17:21:26.590Z,7.43
2023-05-04T17:23:53.390Z,9.50
2023-05-04T17:26:20.266Z,9.10
2023-05-04T17:28:47.316Z,4.77
2023-05-04T17:31:14.218Z,5.80
2023-05-04T17:33:41.097Z,6.70
2023-05-04T17:36:08.317Z,6.30
2023-05-04T17:38:35.451Z,4.77
2023-05-04T17:41:02.503Z,7.03
2023-05-04T17:43:29.358Z,6.00
2023-05-04T17:45:57.402Z,5.80
2023-05-04T17:48:27.356Z,9.50
2023-05-04T17:50:54.367Z,8.93
2023-05-04T17:53:21.400Z,10.13
2023-05-04T17:55:48.173Z,7.00
2023-05-04T17:58:15.050Z,5.50
2023-05-04T18:00:41.952Z,6.07
2023-05-04T18:03:08.780Z,5.87
2023-05-04T18:05:35.752Z,8.90
2023-05-04T18:08:02.621Z,6.90
2023-05-04T18:10:29.559Z,8.03
2023-05-04T18:13:00.269Z,5.33
2023-05-04T18:15:27.333Z,4.37
2023-05-04T18:17:54.286Z,11.23
2023-05-04T18:20:21.465Z,6.13
2023-05-04T18:22:48.482Z,6.47
2023-05-04T18:25:15.433Z,5.67
2023-05-04T18:27:42.424Z,6.70
2023-05-04T18:30:09.913Z,4.83
2023-05-04T18:32:37.230Z,6.03
2023-05-04T18:35:04.390Z,7.47
2023-05-04T18:37:31.384Z,5.70
2023-05-04T18:39:58.985Z,6.17
2023-05-04T18:42:26.146Z,4.90
2023-05-04T18:44:54.005Z,6.10
2023-05-04T18:47:21.084Z,5.47
2023-05-04T18:49:52.451Z,5.40
2023-05-04T18:52:19.275Z,12.70
2023-05-04T18:54:46.456Z,7.07
2023-05-04T18:57:14.329Z,12.57
2023-05-04T18:59:41.252Z,8.27
2023-05-04T19:02:08.607Z,8.20
2023-05-04T19:04:35.747Z,7.70
2023-05-04T19:07:02.624Z,7.20
2023-05-04T19:09:29.596Z,8.80
2023-05-04T19:11:56.575Z,16.27
2023-05-04T19:14:24.111Z,13.87
2023-05-04T19:16:51.054Z,15.80
2023-05-04T19:19:17.798Z,8.23
2023-05-04T19:21:44.742Z,11.40
2023-05-04T19:24:11.535Z,12.70
2023-05-04T19:26:39.654Z,16.03
2023-05-04T19:29:06.597Z,10.60
2023-05-04T19:31:33.538Z,11.30
2023-05-04T19:34:00.480Z,9.67
2023-05-04T19:36:27.485Z,12.30
2023-05-04T19:38:54.581Z,27.13
2023-05-04T19:41:22.104Z,15.10
2023-05-04T19:43:48.992Z,15.73
2023-05-04T19:46:16.013Z,10.13
2023-05-04T19:48:43.760Z,10.77
2023-05-04T19:51:10.622Z,11.40
2023-05-04T19:53:37.654Z,11.17
2023-05-04T19:56:04.568Z,7.10
2023-05-04T19:58:32.314Z,5.33
2023-05-04T20:00:59.254Z,9.47
2023-05-04T20:03:26.505Z,6.80
2023-05-04T20:05:53.451Z,7.57
2023-05-04T20:08:20.405Z,7.83
2023-05-04T20:10:47.233Z,9.13
2023-05-04T20:13:14.844Z,8.80
2023-05-04T20:15:42.678Z,8.03
2023-05-04T20:18:09.727Z,8.07
2023-05-04T20:20:36.905Z,6.83
2023-05-04T20:23:04.106Z,6.83
2023-05-04T20:25:31.234Z,7.63
2023-05-04T20:27:58.375Z,9.27
2023-05-04T20:30:28.263Z,10.50
2023-05-04T20:32:55.614Z,6.70
2023-05-04T20:35:22.839Z,12.60
2023-05-04T20:37:49.977Z,8.40
2023-05-04T20:40:17.046Z,8.43
2023-05-04T20:42:45.618Z,8.03
2023-05-04T20:45:13.468Z,7.97
2023-05-04T20:47:40.486Z,7.60
2023-05-04T20:50:10.073Z,6.90
2023-05-04T20:52:38.427Z,8.30
2023-05-04T20:55:07.577Z,7.60
2023-05-04T20:57:35.031Z,11.80
2023-05-04T21:00:02.220Z,8.97
2023-05-04T21:02:29.348Z,11.60
2023-05-04T21:04:56.809Z,12.97
2023-05-04T21:07:23.955Z,21.97
2023-05-04T21:09:55.457Z,6.60
2023-05-04T21:12:22.209Z,7.30
2023-05-04T21:14:49.114Z,12.60
2023-05-04T21:17:16.018Z,7.30
2023-05-04T21:19:42.839Z,9.33
2023-05-04T21:22:09.749Z,8.03
2023-05-04T21:24:36.927Z,12.33
2023-05-04T21:27:04.510Z,8.03
2023-05-04T21:29:31.378Z,10.17
2023-05-04T21:31:58.457Z,13.03
2023-05-04T21:34:25.685Z,7.77
2023-05-04T21:36:53.068Z,8.43
2023-05-04T21:39:20.138Z,10.93
2023-05-04T21:41:46.992Z,11.00
2023-05-04T21:44:14.022Z,14.43
2023-05-04T21:46:41.900Z,8.93
2023-05-04T21:49:08.867Z,19.60
2023-05-04T21:51:35.748Z,9.70
2023-05-04T21:54:02.699Z,10.50
2023-05-04T21:56:29.605Z,9.63
2023-05-04T21:58:56.735Z,8.53
2023-05-04T22:01:23.737Z,13.40
2023-05-04T22:03:51.065Z,8.70
2023-05-04T22:06:18.848Z,8.37
2023-05-04T22:08:45.777Z,8.77
2023-05-04T22:11:12.531Z,10.17
2023-05-04T22:13:39.503Z,10.67
2023-05-04T22:16:08.587Z,8.47
2023-05-04T22:18:35.601Z,7.10
2023-05-04T22:21:02.446Z,8.00
2023-05-04T22:23:29.221Z,6.93
2023-05-04T22:25:56.542Z,7.37
2023-05-04T22:28:23.368Z,8.80
2023-05-04T22:30:50.425Z,8.10
2023-05-04T22:33:17.293Z,7.13
2023-05-04T22:35:44.170Z,8.03
2023-05-04T22:38:11.956Z,11.00
2023-05-04T22:40:40.325Z,7.10
2023-05-04T22:43:07.499Z,8.30
2023-05-04T22:45:36.381Z,8.07
2023-05-04T22:48:03.241Z,7.77
2023-05-04T22:50:30.503Z,7.10
2023-05-04T22:52:57.394Z,8.40
2023-05-04T22:55:24.513Z,8.60
2023-05-04T22:57:51.346Z,9.30
2023-05-04T23:00:18.456Z,10.73
2023-05-04T23:02:45.362Z,5.73
2023-05-04T23:05:13.063Z,7.67
2023-05-04T23:07:40.501Z,14.07
2023-05-04T23:10:08.077Z,8.53
2023-05-04T23:12:35.084Z,9.00
2023-05-04T23:15:02.052Z,6.37
2023-05-04T23:17:28.936Z,5.07
2023-05-04T23:19:56.019Z,7.40
2023-05-04T23:22:22.721Z,7.90
2023-05-04T23:24:49.516Z,8.53
2023-05-04T23:27:16.330Z,6.93
2023-05-04T23:29:43.122Z,4.83
2023-05-04T23:32:10.016Z,5.80
2023-05-04T23:34:36.892Z,6.47
2023-05-04T23:37:03.604Z,5.93
2023-05-04T23:39:30.429Z,8.33
2023-05-04T23:41:57.309Z,5.00
2023-05-04T23:44:24.093Z,6.47
2023-05-04T23:46:50.987Z,11.60
2023-05-04T23:49:17.750Z,8.13
2023-05-04T23:51:45.115Z,4.90
2023-05-04T23:54:11.868Z,5.47
2023-05-04T23:56:38.619Z,9.10
2023-05-04T23:59:05.542Z,10.03
